Time;durP1;ratioP1;P1;durP2;ratioP2;P2;SDS_P1;SDS_P2;PMS_P1;PMS_P2;Temp;Humidity;BMP_temperature;BMP_pressure;BME280_temperature;BME280_humidity;BME280_pressure;Samples;Min_cycle;Max_cycle;Signal;HPM_P1;HPM_P2
2023/04/01 00:01:25;;;;;;;59.25;18.15;;;;;;;-144.87;100.00;61487.56;5006360;28;20041;-82
2023/04/01 00:03:51;;;;;;;51.72;16.65;;;;;;;-144.87;100.00;61487.56;5011737;28;20037;-81
2023/04/01 00:09:41;;;;;;;52.55;17.45;;;;;;;-144.87;100.00;61487.56;5004026;28;20467;-82
2023/04/01 00:12:07;;;;;;;50.90;18.27;;;;;;;-144.87;100.00;61487.56;5005268;28;20669;-81
2023/04/01 00:14:34;;;;;;;58.72;17.77;;;;;;;-144.87;100.00;61487.56;5007703;28;20087;-82
2023/04/01 00:17:01;;;;;;;66.35;20.20;;;;;;;-144.87;100.00;61487.56;5003540;28;20297;-81
2023/04/01 00:19:32;;;;;;;63.42;21.45;;;;;;;-144.87;100.00;61487.56;5010505;28;20091;-82
2023/04/01 00:21:58;;;;;;;73.50;23.00;;;;;;;-144.87;100.00;61487.56;5022224;28;20077;-81
2023/04/01 00:24:26;;;;;;;76.40;23.70;;;;;;;-144.87;100.00;61487.56;5001950;28;20034;-82
2023/04/01 00:26:52;;;;;;;70.15;22.02;;;;;;;-144.87;100.00;61487.56;5024405;28;20033;-82
2023/04/01 00:29:18;;;;;;;69.05;24.40;;;;;;;-144.87;100.00;61487.56;5003458;28;20136;-81
2023/04/01 00:31:44;;;;;;;61.38;22.60;;;;;;;-144.87;100.00;61487.56;5006260;28;20066;-82
2023/04/01 00:34:12;;;;;;;60.08;23.70;;;;;;;-144.87;100.00;61487.56;5008366;28;20119;-81
2023/04/01 00:36:39;;;;;;;61.17;22.23;;;;;;;-144.87;100.00;61487.56;4988230;28;20076;-82
2023/04/01 00:39:05;;;;;;;68.03;23.52;;;;;;;-144.87;100.00;61487.56;5006064;28;20030;-82
2023/04/01 00:41:51;;;;;;;64.15;23.50;;;;;;;-144.87;100.00;61487.56;5019882;28;20487;-81
2023/04/01 00:44:19;;;;;;;71.25;25.60;;;;;;;-144.87;100.00;61487.56;5002239;28;20041;-81
2023/04/01 00:46:45;;;;;;;62.00;21.85;;;;;;;-144.87;100.00;61487.56;5006735;28;20476;-82
2023/04/01 00:49:13;;;;;;;68.55;25.45;;;;;;;-144.87;100.00;61487.56;5000968;28;20033;-81
2023/04/01 00:51:40;;;;;;;62.00;21.50;;;;;;;-144.87;100.00;61487.56;5005433;28;20034;-81
2023/04/01 00:54:07;;;;;;;53.33;21.75;;;;;;;-144.87;100.00;61487.56;5008520;28;20077;-81
2023/04/01 00:56:55;;;;;;;51.08;20.58;;;;;;;-144.87;100.00;61487.56;5011961;28;20446;-81
2023/04/01 00:59:28;;;;;;;55.50;23.08;;;;;;;-144.87;100.00;61487.56;5021598;28;20084;-83
2023/04/01 01:01:54;;;;;;;46.75;19.17;;;;;;;-144.87;100.00;61487.56;5005284;28;20018;-81
2023/04/01 01:04:32;;;;;;;47.55;17.85;;;;;;;-144.87;100.00;61487.56;5024236;28;20042;-82
2023/04/01 01:07:24;;;;;;;46.90;16.52;;;;;;;-144.87;100.00;61487.56;5024039;28;20125;-82
2023/04/01 01:10:14;;;;;;;44.05;15.50;;;;;;;-144.87;100.00;61487.56;5007310;28;20034;-83
2023/04/01 01:12:46;;;;;;;40.25;16.90;;;;;;;-144.87;100.00;61487.56;5023508;28;20104;-83
2023/04/01 01:15:27;;;;;;;41.00;15.38;;;;;;;-144.87;100.00;61487.56;4991064;28;20128;-82
2023/04/01 01:18:03;;;;;;;45.80;15.13;;;;;;;-144.87;100.00;61487.56;5027498;28;20048;-83
2023/04/01 01:20:36;;;;;;;33.53;13.70;;;;;;;-144.87;100.00;61487.56;5013267;28;20031;-83
2023/04/01 01:23:21;;;;;;;34.17;13.43;;;;;;;-144.87;100.00;61487.56;5019499;28;20037;-82
2023/04/01 01:26:26;;;;;;;40.08;14.07;;;;;;;-144.87;100.00;61487.56;5012730;28;20030;-82
2023/04/01 01:29:04;;;;;;;32.97;12.48;;;;;;;-144.87;100.00;61487.56;5025167;28;20128;-82
2023/04/01 01:31:54;;;;;;;32.08;12.82;;;;;;;-144.87;100.00;61487.56;5024715;28;20495;-83
2023/04/01 01:34:26;;;;;;;36.20;13.40;;;;;;;-144.87;100.00;61487.56;4995000;28;20030;-82
2023/04/01 01:36:57;;;;;;;24.30;10.50;;;;;;;-144.87;100.00;61487.56;5008414;28;20034;-84
2023/04/01 01:39:29;;;;;;;32.70;12.90;;;;;;;-144.87;100.00;61487.56;5015175;28;20040;-84
2023/04/01 01:41:58;;;;;;;28.25;11.38;;;;;;;-144.87;100.00;61487.56;5005707;28;20132;-82
2023/04/01 01:44:45;;;;;;;34.13;12.45;;;;;;;-144.87;100.00;61487.56;4997193;28;20511;-82
2023/04/01 01:47:12;;;;;;;37.08;13.10;;;;;;;-144.87;100.00;61487.56;5028421;28;20037;-83
2023/04/01 01:49:40;;;;;;;27.38;9.48;;;;;;;-144.87;100.00;61487.56;4998211;28;20087;-83
2023/04/01 01:52:06;;;;;;;31.58;11.65;;;;;;;-144.87;100.00;61487.56;5018948;28;20029;-82
2023/04/01 01:54:34;;;;;;;34.65;10.82;;;;;;;-144.87;100.00;61487.56;5026649;28;20037;-81
2023/04/01 01:57:07;;;;;;;23.17;10.65;;;;;;;-144.87;100.00;61487.56;4997236;28;20171;-82
2023/04/01 01:59:38;;;;;;;34.75;12.43;;;;;;;-144.87;100.00;61487.56;5013512;28;20037;-83
2023/04/01 02:02:07;;;;;;;32.30;11.35;;;;;;;-144.87;100.00;61487.56;5008887;28;20442;-82
2023/04/01 02:04:54;;;;;;;38.17;13.25;;;;;;;-144.87;100.00;61487.56;4998978;28;20048;-81
2023/04/01 02:07:31;;;;;;;26.75;12.68;;;;;;;-144.87;100.00;61487.56;5002778;28;20022;-81
2023/04/01 02:09:57;;;;;;;33.50;12.98;;;;;;;-144.87;100.00;61487.56;5015485;28;20033;-83
2023/04/01 02:12:26;;;;;;;41.75;14.65;;;;;;;-144.87;100.00;61487.56;5013929;28;20063;-82
2023/04/01 02:14:54;;;;;;;44.75;16.00;;;;;;;-144.87;100.00;61487.56;5014301;28;20025;-83
2023/04/01 02:17:26;;;;;;;51.20;16.83;;;;;;;-144.87;100.00;61487.56;4998569;28;20053;-82
2023/04/01 02:19:58;;;;;;;48.97;17.83;;;;;;;-144.87;100.00;61487.56;4998713;28;20033;-83
2023/04/01 02:22:29;;;;;;;50.63;17.67;;;;;;;-144.87;100.00;61487.56;5022583;28;20552;-83
2023/04/01 02:25:03;;;;;;;48.50;15.90;;;;;;;-144.87;100.00;61487.56;4992955;28;20037;-81
2023/04/01 02:27:29;;;;;;;49.47;17.90;;;;;;;-144.87;100.00;61487.56;5000653;28;20135;-82
2023/04/01 02:29:56;;;;;;;54.55;16.25;;;;;;;-144.87;100.00;61487.56;5009081;28;20049;-81
2023/04/01 02:32:23;;;;;;;49.08;17.75;;;;;;;-144.87;100.00;61487.56;4995160;28;20033;-79
2023/04/01 02:34:49;;;;;;;50.85;17.80;;;;;;;-144.87;100.00;61487.56;4996787;28;20121;-83
2023/04/01 02:37:16;;;;;;;49.85;16.42;;;;;;;-144.87;100.00;61487.56;4997458;28;20121;-82
2023/04/01 02:39:45;;;;;;;48.42;17.70;;;;;;;-144.87;100.00;61487.56;5010770;28;20029;-82
2023/04/01 02:42:12;;;;;;;58.33;19.48;;;;;;;-144.87;100.00;61487.56;5014640;28;20048;-82
2023/04/01 02:44:39;;;;;;;61.17;19.98;;;;;;;-144.87;100.00;61487.56;4999704;28;20128;-82
2023/04/01 02:47:05;;;;;;;51.67;20.75;;;;;;;-144.87;100.00;61487.56;5011264;28;20099;-82
2023/04/01 02:49:32;;;;;;;63.63;21.10;;;;;;;-144.87;100.00;61487.56;5030308;28;20060;-84
2023/04/01 02:52:00;;;;;;;64.20;22.60;;;;;;;-144.87;100.00;61487.56;5032588;28;20037;-81
2023/04/01 02:54:26;;;;;;;63.58;22.45;;;;;;;-144.87;100.00;61487.56;5005174;28;20486;-82
2023/04/01 02:56:54;;;;;;;69.50;23.77;;;;;;;-144.87;100.00;61487.56;4992436;28;20132;-85
2023/04/01 02:59:21;;;;;;;63.58;23.67;;;;;;;-144.87;100.00;61487.56;4998318;28;20056;-82
2023/04/01 03:01:47;;;;;;;62.92;21.88;;;;;;;-144.87;100.00;61487.56;5010698;28;20151;-83
2023/04/01 03:04:13;;;;;;;71.93;23.10;;;;;;;-144.87;100.00;61487.56;5012143;28;20545;-83
2023/04/01 03:06:40;;;;;;;69.93;22.88;;;;;;;-144.87;100.00;61487.56;5011769;28;20037;-81
2023/04/01 03:09:06;;;;;;;69.63;23.55;;;;;;;-144.87;100.00;61487.56;5011211;28;20091;-82
2023/04/01 03:11:32;;;;;;;63.97;21.90;;;;;;;-144.87;100.00;61487.56;5011214;28;20112;-82
2023/04/01 03:13:59;;;;;;;73.03;24.65;;;;;;;-144.87;100.00;61487.56;5021230;28;20048;-82
2023/04/01 03:16:25;;;;;;;69.47;23.80;;;;;;;-144.87;100.00;61487.56;5004864;28;20042;-81
2023/04/01 03:18:55;;;;;;;77.47;23.27;;;;;;;-144.87;100.00;61487.56;5015506;28;20054;-82
2023/04/01 03:21:23;;;;;;;85.18;23.52;;;;;;;-144.87;100.00;61487.56;5015272;28;20470;-81
2023/04/01 03:23:50;;;;;;;69.95;23.05;;;;;;;-144.87;100.00;61487.56;5008068;28;20030;-82
2023/04/01 03:26:16;;;;;;;69.93;22.50;;;;;;;-144.87;100.00;61487.56;5012790;28;20044;-83
2023/04/01 03:28:45;;;;;;;67.80;22.85;;;;;;;-144.87;100.00;61487.56;5030373;28;20033;-82
2023/04/01 03:31:15;;;;;;;70.07;22.58;;;;;;;-144.87;100.00;61487.56;4996993;28;20493;-79
2023/04/01 03:33:48;;;;;;;75.47;23.38;;;;;;;-144.87;100.00;61487.56;5015976;28;20052;-82
2023/04/01 03:36:15;;;;;;;76.22;23.45;;;;;;;-144.87;100.00;61487.56;5003563;28;20151;-81
2023/04/01 03:38:41;;;;;;;68.88;22.42;;;;;;;-144.87;100.00;61487.56;5005643;28;20068;-81
2023/04/01 03:41:11;;;;;;;68.35;22.35;;;;;;;-144.87;100.00;61487.56;5007486;28;20041;-81
2023/04/01 03:43:37;;;;;;;61.80;20.67;;;;;;;-144.87;100.00;61487.56;5028666;28;20044;-82
2023/04/01 03:46:04;;;;;;;65.70;21.23;;;;;;;-144.87;100.00;61487.56;5026293;28;20037;-83
2023/04/01 03:48:31;;;;;;;62.30;21.90;;;;;;;-144.87;100.00;61487.56;5000912;28;20513;-82
2023/04/01 03:50:57;;;;;;;66.03;23.27;;;;;;;-144.87;100.00;61487.56;4998485;28;20041;-82
2023/04/01 03:53:24;;;;;;;64.57;22.88;;;;;;;-144.87;100.00;61487.56;5023808;28;20037;-81
2023/04/01 03:55:57;;;;;;;63.35;22.00;;;;;;;-144.87;100.00;61487.56;5012228;28;20550;-81
2023/04/01 03:58:23;;;;;;;63.80;21.98;;;;;;;-144.87;100.00;61487.56;4998245;28;20059;-83
2023/04/01 04:00:51;;;;;;;61.03;21.17;;;;;;;-144.87;100.00;61487.56;4997902;28;20061;-86
2023/04/01 04:03:17;;;;;;;65.45;20.30;;;;;;;-144.87;100.00;61487.56;5017879;28;20123;-84
2023/04/01 04:05:48;;;;;;;63.42;19.77;;;;;;;-144.87;100.00;61487.56;4998334;28;20129;-82
2023/04/01 04:08:15;;;;;;;53.72;17.98;;;;;;;-144.87;100.00;61487.56;4998346;28;20124;-83
2023/04/01 04:10:41;;;;;;;47.85;17.17;;;;;;;-144.87;100.00;61487.56;5006308;28;20030;-83
2023/04/01 04:13:08;;;;;;;55.38;17.08;;;;;;;-144.87;100.00;61487.56;5011220;28;20025;-82
2023/04/01 04:15:39;;;;;;;52.10;17.92;;;;;;;-144.87;100.00;61487.56;5008197;28;20041;-82
2023/04/01 04:18:07;;;;;;;52.28;16.48;;;;;;;-144.87;100.00;61487.56;5015699;28;20092;-83
2023/04/01 04:20:33;;;;;;;44.60;14.68;;;;;;;-144.87;100.00;61487.56;4998556;28;20049;-83
2023/04/01 04:23:01;;;;;;;30.83;11.70;;;;;;;-144.87;100.00;61487.56;4988023;28;20571;-84
2023/04/01 04:25:27;;;;;;;28.92;11.13;;;;;;;-144.87;100.00;61487.56;5028999;28;20037;-85
2023/04/01 04:27:53;;;;;;;32.15;11.88;;;;;;;-144.87;100.00;61487.56;5000720;28;20087;-85
2023/04/01 04:30:20;;;;;;;24.25;9.43;;;;;;;-144.87;100.00;61487.56;4997537;28;20022;-81
2023/04/01 04:32:46;;;;;;;23.25;9.55;;;;;;;-144.87;100.00;61487.56;5014918;28;20029;-83
2023/04/01 04:35:15;;;;;;;26.05;11.07;;;;;;;-144.87;100.00;61487.56;5003205;28;20037;-84
2023/04/01 04:37:41;;;;;;;25.95;10.02;;;;;;;-144.87;100.00;61487.56;4998820;28;20029;-83
2023/04/01 04:40:08;;;;;;;25.13;10.48;;;;;;;-144.87;100.00;61487.56;5007026;28;20079;-83
2023/04/01 04:42:34;;;;;;;26.98;10.93;;;;;;;-144.87;100.00;61487.56;4997170;28;20061;-86
2023/04/01 04:45:06;;;;;;;28.33;10.63;;;;;;;-144.87;100.00;61487.56;4984017;28;20107;-83
2023/04/01 04:47:33;;;;;;;39.53;13.23;;;;;;;-144.87;100.00;61487.56;5026862;28;20037;-84
2023/04/01 04:49:59;;;;;;;32.33;12.52;;;;;;;-144.87;100.00;61487.56;5012161;28;20037;-82
2023/04/01 04:52:26;;;;;;;36.30;13.43;;;;;;;-144.87;100.00;61487.56;4993941;28;20033;-83
2023/04/01 04:54:52;;;;;;;38.35;14.05;;;;;;;-144.87;100.00;61487.56;5026245;28;20045;-84
2023/04/01 04:57:18;;;;;;;36.10;14.50;;;;;;;-144.87;100.00;61487.56;5012378;28;20064;-83
2023/04/01 04:59:51;;;;;;;44.58;16.10;;;;;;;-144.87;100.00;61487.56;5019577;28;20574;-82
2023/04/01 05:02:38;;;;;;;43.05;16.45;;;;;;;-144.87;100.00;61487.56;5015044;28;20044;-83
2023/04/01 05:05:05;;;;;;;35.28;15.73;;;;;;;-144.87;100.00;61487.56;4996519;28;20045;-82
2023/04/01 05:07:31;;;;;;;38.17;17.25;;;;;;;-144.87;100.00;61487.56;5008488;28;20034;-84
2023/04/01 05:09:59;;;;;;;42.08;18.00;;;;;;;-144.87;100.00;61487.56;4994126;28;20033;-83
2023/04/01 05:12:27;;;;;;;42.03;18.23;;;;;;;-144.87;100.00;61487.56;5010784;28;20032;-83
2023/04/01 05:15:00;;;;;;;41.78;18.30;;;;;;;-144.87;100.00;61487.56;5006614;28;20087;-83
2023/04/01 05:17:26;;;;;;;38.17;17.42;;;;;;;-144.87;100.00;61487.56;5004905;28;20053;-84
2023/04/01 05:19:54;;;;;;;42.13;17.77;;;;;;;-144.87;100.00;61487.56;4993153;28;20068;-84
2023/04/01 05:22:22;;;;;;;42.80;17.50;;;;;;;-144.87;100.00;61487.56;5029634;28;20325;-84
2023/04/01 05:24:48;;;;;;;36.63;16.60;;;;;;;-144.87;100.00;61487.56;5011441;28;20794;-83
2023/04/01 05:27:15;;;;;;;36.55;15.85;;;;;;;-144.87;100.00;61487.56;4997153;28;20491;-83
2023/04/01 05:29:42;;;;;;;39.90;17.42;;;;;;;-144.87;100.00;61487.56;5009860;28;20041;-83
2023/04/01 05:32:23;;;;;;;38.35;17.55;;;;;;;-144.87;100.00;61487.56;4998651;28;20037;-85
2023/04/01 05:34:54;;;;;;;39.03;17.10;;;;;;;-144.87;100.00;61487.56;5003625;28;20032;-84
2023/04/01 05:37:22;;;;;;;35.53;17.63;;;;;;;-144.87;100.00;61487.56;5008799;28;20038;-83
2023/04/01 05:39:50;;;;;;;37.35;17.45;;;;;;;-144.87;100.00;61487.56;5015992;28;20479;-83
2023/04/01 05:42:17;;;;;;;35.72;16.63;;;;;;;-144.87;100.00;61487.56;4993486;28;20483;-83
2023/04/01 05:44:45;;;;;;;39.20;18.15;;;;;;;-144.87;100.00;61487.56;5014637;28;20132;-83
2023/04/01 05:47:49;;;;;;;41.85;18.58;;;;;;;-144.87;100.00;61487.56;4959082;28;20078;-84
2023/04/01 05:50:18;;;;;;;39.75;17.85;;;;;;;-144.87;100.00;61487.56;4951355;28;20046;-84
2023/04/01 05:52:45;;;;;;;39.33;18.13;;;;;;;-144.87;100.00;61487.56;4963296;28;20395;-85
2023/04/01 05:55:11;;;;;;;34.63;17.77;;;;;;;-144.87;100.00;61487.56;5004043;28;20384;-84
2023/04/01 05:57:39;;;;;;;43.58;20.55;;;;;;;-144.87;100.00;61487.56;5019546;28;20035;-83
2023/04/01 06:00:06;;;;;;;38.10;19.15;;;;;;;-144.87;100.00;61487.56;4998732;28;20045;-82
2023/04/01 06:02:38;;;;;;;34.38;16.42;;;;;;;-144.87;100.00;61487.56;5016156;28;20034;-82
2023/04/01 06:05:19;;;;;;;36.97;16.95;;;;;;;-144.87;100.00;61487.56;4979085;28;20514;-83
2023/04/01 06:07:46;;;;;;;36.85;16.67;;;;;;;-144.87;100.00;61487.56;5023117;28;20120;-83
2023/04/01 06:10:14;;;;;;;41.03;18.85;;;;;;;-144.87;100.00;61487.56;5004107;28;20518;-84
2023/04/01 06:13:00;;;;;;;42.78;20.17;;;;;;;-144.87;100.00;61487.56;5024406;28;20067;-83
2023/04/01 06:15:54;;;;;;;47.35;19.90;;;;;;;-144.87;100.00;61487.56;5024049;28;20277;-83
2023/04/01 06:18:35;;;;;;;52.45;21.52;;;;;;;-144.87;100.00;61487.56;5007878;28;20124;-82
2023/04/01 06:21:20;;;;;;;55.20;21.02;;;;;;;-144.87;100.00;61487.56;4994406;28;20494;-84
2023/04/01 06:24:22;;;;;;;47.83;19.27;;;;;;;-144.87;100.00;61487.56;5024746;28;20045;-83
2023/04/01 06:26:57;;;;;;;;;;;;;;;-144.87;100.00;61487.56;5024779;28;20032;-82
2023/04/01 06:29:44;;;;;;;43.45;18.15;;;;;;;-144.87;100.00;61487.56;5007443;28;19920;-81
2023/04/01 06:32:18;;;;;;;46.50;19.52;;;;;;;-144.87;100.00;61487.56;5013476;28;20048;-81
2023/04/01 06:35:02;;;;;;;51.40;19.42;;;;;;;-144.87;100.00;61487.56;5014644;28;20694;-82
2023/04/01 06:37:52;;;;;;;45.50;16.40;;;;;;;-144.87;100.00;61487.56;5017802;28;20034;-83
2023/04/01 06:40:41;;;;;;;55.13;20.35;;;;;;;-144.87;100.00;61487.56;4996195;28;20069;-84
2023/04/01 06:43:15;;;;;;;52.15;17.63;;;;;;;-144.87;100.00;61487.56;5019631;28;20398;-81
2023/04/01 06:46:35;;;;;;;48.75;18.23;;;;;;;-144.87;100.00;61487.56;4960604;28;20042;-83
2023/04/01 06:49:26;;;;;;;46.17;18.27;;;;;;;-144.87;100.00;61487.56;4970613;28;20141;-80
2023/04/01 06:52:23;;;;;;;50.55;18.85;;;;;;;-144.87;100.00;61487.56;5010128;28;20088;-81
2023/04/01 06:55:24;;;;;;;55.55;20.92;;;;;;;-144.87;100.00;61487.56;5018612;28;20044;-81
2023/04/01 06:58:23;;;;;;;51.72;20.85;;;;;;;-144.87;100.00;61487.56;5003997;28;20041;-81
2023/04/01 07:00:58;;;;;;;55.58;21.63;;;;;;;-144.87;100.00;61487.56;5018868;28;20115;-81
2023/04/01 07:03:45;;;;;;;60.85;22.02;;;;;;;-144.87;100.00;61487.56;5008149;28;20029;-81
2023/04/01 07:06:31;;;;;;;50.75;19.92;;;;;;;-144.87;100.00;61487.56;5013120;28;20030;-81
2023/04/01 07:09:12;;;;;;;54.53;19.60;;;;;;;-144.87;100.00;61487.56;4998599;28;20104;-82
2023/04/01 07:12:44;;;;;;;60.20;20.83;;;;;;;-144.87;100.00;61487.56;4990793;28;20041;-82
2023/04/01 07:15:56;;;;;;;59.70;21.52;;;;;;;-144.87;100.00;61487.56;5012594;28;20045;-83
2023/04/01 07:18:34;;;;;;;54.83;20.30;;;;;;;-144.87;100.00;61487.56;5013958;28;20029;-81
2023/04/01 07:21:02;;;;;;;60.17;20.60;;;;;;;-144.87;100.00;61487.56;4998319;28;20045;-81
2023/04/01 07:23:33;;;;;;;59.38;20.25;;;;;;;-144.87;100.00;61487.56;4997611;28;20033;-82
2023/04/01 07:26:27;;;;;;;49.20;19.40;;;;;;;-144.87;100.00;61487.56;4999266;28;20124;-81
2023/04/01 07:29:14;;;;;;;48.53;19.33;;;;;;;-144.87;100.00;61487.56;4994902;28;20041;-80
2023/04/01 07:32:26;;;;;;;53.30;19.17;;;;;;;-144.87;100.00;61487.56;4980178;28;20109;-77
2023/04/01 07:35:09;;;;;;;50.53;19.00;;;;;;;-144.87;100.00;61487.56;5008562;28;20022;-83
2023/04/01 07:37:39;;;;;;;;;;;;;;;-144.87;100.00;61487.56;5013222;28;20060;-82
2023/04/01 07:40:28;;;;;;;46.13;19.45;;;;;;;-144.87;100.00;61487.56;5029945;28;19998;-82
2023/04/01 07:43:27;;;;;;;56.33;19.27;;;;;;;-144.87;100.00;61487.56;5014149;28;20044;-81
2023/04/01 07:46:35;;;;;;;55.15;20.08;;;;;;;-144.87;100.00;61487.56;4995081;28;20092;-83
2023/04/01 07:49:10;;;;;;;55.47;19.52;;;;;;;-144.87;100.00;61487.56;4990873;28;20037;-82
2023/04/01 07:52:00;;;;;;;59.65;20.50;;;;;;;-144.87;100.00;61487.56;4998060;28;20037;-82
2023/04/01 07:54:33;;;;;;;54.00;20.47;;;;;;;-144.87;100.00;61487.56;4992758;28;20042;-83
2023/04/01 07:57:15;;;;;;;53.40;21.05;;;;;;;-144.87;100.00;61487.56;5005081;28;20414;-82
2023/04/01 07:59:53;;;;;;;59.80;21.55;;;;;;;-144.87;100.00;61487.56;5031018;28;20037;-82
2023/04/01 08:02:34;;;;;;;56.72;21.80;;;;;;;-144.87;100.00;61487.56;5013182;28;20124;-82
2023/04/01 08:05:30;;;;;;;52.60;21.15;;;;;;;-144.87;100.00;61487.56;4997529;28;20033;-81
2023/04/01 08:08:20;;;;;;;58.80;22.02;;;;;;;-144.87;100.00;61487.56;5028194;28;20037;-82
2023/04/01 08:11:21;;;;;;;51.58;20.23;;;;;;;-144.87;100.00;61487.56;5021722;28;20424;-82
2023/04/01 08:14:25;;;;;;;56.28;20.67;;;;;;;-144.87;100.00;61487.56;5025010;28;20061;-83
2023/04/01 08:17:16;;;;;;;54.30;20.23;;;;;;;-144.87;100.00;61487.56;5041654;28;20106;-83
2023/04/01 08:19:56;;;;;;;59.85;21.00;;;;;;;-144.87;100.00;61487.56;5012268;28;20136;-82
2023/04/01 08:22:28;;;;;;;57.80;21.15;;;;;;;-144.87;100.00;61487.56;5017885;28;20128;-82
2023/04/01 08:25:02;;;;;;;58.45;22.25;;;;;;;-144.87;100.00;61487.56;5004844;28;20033;-82
2023/04/01 08:27:37;;;;;;;67.20;23.80;;;;;;;-144.87;100.00;61487.56;4993730;28;20049;-83
2023/04/01 08:30:18;;;;;;;70.75;25.63;;;;;;;-144.87;100.00;61487.56;5007461;28;20114;-82
2023/04/01 08:32:58;;;;;;;70.60;25.92;;;;;;;-144.87;100.00;61487.56;5008691;28;20048;-80
2023/04/01 08:36:05;;;;;;;65.95;25.38;;;;;;;-144.87;100.00;61487.56;4989541;28;20037;-81
2023/04/01 08:38:57;;;;;;;86.60;26.95;;;;;;;-144.87;100.00;61487.56;5008274;28;20029;-82
2023/04/01 08:41:33;;;;;;;80.00;26.48;;;;;;;-144.87;100.00;61487.56;5003199;28;20049;-83
2023/04/01 08:45:01;;;;;;;73.30;26.30;;;;;;;-144.87;100.00;61487.56;5025810;28;20605;-83
2023/04/01 08:47:48;;;;;;;61.53;23.63;;;;;;;-144.87;100.00;61487.56;5025113;28;20037;-84
2023/04/01 08:50:55;;;;;;;56.20;23.05;;;;;;;-144.87;100.00;61487.56;5011341;28;20029;-83
2023/04/01 08:53:46;;;;;;;69.03;25.00;;;;;;;-144.87;100.00;61487.56;5015867;28;20486;-83
2023/04/01 08:56:18;;;;;;;;;;;;;;;-144.87;100.00;61487.56;5018112;28;20543;-82
2023/04/01 08:59:26;;;;;;;52.78;22.55;;;;;;;-144.87;100.00;61487.56;5012445;28;20008;-82
2023/04/01 09:02:23;;;;;;;60.25;22.25;;;;;;;-144.87;100.00;61487.56;4980657;28;20425;-82
2023/04/01 09:05:04;;;;;;;57.78;22.40;;;;;;;-144.87;100.00;61487.56;5018387;28;20033;-82
2023/04/01 09:08:02;;;;;;;51.60;22.02;;;;;;;-144.87;100.00;61487.56;4996227;28;20036;-82
2023/04/01 09:10:49;;;;;;;56.80;22.95;;;;;;;-144.87;100.00;61487.56;5028749;28;20021;-81
2023/04/01 09:13:45;;;;;;;51.20;21.17;;;;;;;-144.87;100.00;61487.56;4993015;28;20507;-80
2023/04/01 09:16:24;;;;;;;48.17;21.60;;;;;;;-144.87;100.00;61487.56;5028623;28;20053;-80
2023/04/01 09:18:54;;;;;;;50.88;20.30;;;;;;;-144.87;100.00;61487.56;5025977;28;20039;-82
2023/04/01 09:21:37;;;;;;;49.42;20.38;;;;;;;-144.87;100.00;61487.56;5031872;28;20037;-81
2023/04/01 09:24:13;;;;;;;44.75;20.30;;;;;;;-144.87;100.00;61487.56;5026591;28;20139;-82
2023/04/01 09:27:07;;;;;;;49.90;19.85;;;;;;;-144.87;100.00;61487.56;5009705;28;20034;-82
2023/04/01 09:30:22;;;;;;;47.58;19.25;;;;;;;-144.87;100.00;61487.56;5001428;28;20049;-78
2023/04/01 09:32:54;;;;;;;46.28;19.60;;;;;;;-144.87;100.00;61487.56;5011773;28;20494;-82
2023/04/01 09:35:48;;;;;;;40.47;19.05;;;;;;;-144.87;100.00;61487.56;5009016;28;20869;-81
2023/04/01 09:38:40;;;;;;;40.47;18.93;;;;;;;-144.87;100.00;61487.56;5008320;28;20034;-81
2023/04/01 09:41:25;;;;;;;37.08;18.45;;;;;;;-144.87;100.00;61487.56;5007390;28;20288;-85
2023/04/01 09:44:01;;;;;;;37.95;18.83;;;;;;;-144.87;100.00;61487.56;5012477;28;20116;-82
2023/04/01 09:46:50;;;;;;;36.78;18.33;;;;;;;-144.87;100.00;61487.56;4999810;28;20041;-83
2023/04/01 09:49:19;;;;;;;33.40;17.67;;;;;;;-144.87;100.00;61487.56;5006952;28;20025;-83
2023/04/01 09:52:23;;;;;;;31.60;15.43;;;;;;;-144.87;100.00;61487.56;5029486;28;20043;-84
2023/04/01 09:54:59;;;;;;;25.13;14.05;;;;;;;-144.87;100.00;61487.56;5006967;28;20054;-85
2023/04/01 09:57:40;;;;;;;26.30;15.15;;;;;;;-144.87;100.00;61487.56;5029303;28;20095;-85
2023/04/01 10:00:27;;;;;;;26.77;15.00;;;;;;;-144.87;100.00;61487.56;5028623;28;20483;-83
2023/04/01 10:03:14;;;;;;;27.27;14.82;;;;;;;-144.87;100.00;61487.56;5017838;28;20034;-84
2023/04/01 10:06:02;;;;;;;22.13;14.05;;;;;;;-144.87;100.00;61487.56;5032461;28;20046;-92
2023/04/01 10:09:02;;;;;;;24.02;13.55;;;;;;;-144.87;100.00;61487.56;5023527;28;20028;-84
2023/04/01 10:11:38;;;;;;;29.05;14.80;;;;;;;-144.87;100.00;61487.56;5003108;28;20429;-83
2023/04/01 10:14:33;;;;;;;24.42;14.35;;;;;;;-144.87;100.00;61487.56;5000814;28;20033;-83
2023/04/01 10:17:26;;;;;;;29.70;15.25;;;;;;;-144.87;100.00;61487.56;4989547;28;20189;-86
2023/04/01 10:20:18;;;;;;;;;;;;;;;-144.87;100.00;61487.56;4993904;28;20664;-85
2023/04/01 10:22:55;;;;;;;27.95;13.93;;;;;;;-144.87;100.00;61487.56;5007177;28;20460;-85
2023/04/01 10:25:46;;;;;;;31.45;15.20;;;;;;;-144.87;100.00;61487.56;5015857;28;20482;-82
2023/04/01 10:28:36;;;;;;;28.52;14.55;;;;;;;-144.87;100.00;61487.56;5012561;28;20030;-85
2023/04/01 10:31:50;;;;;;;30.63;14.95;;;;;;;-144.87;100.00;61487.56;5017544;28;20432;-85
2023/04/01 10:34:26;;;;;;;26.75;13.63;;;;;;;-144.87;100.00;61487.56;5033663;28;20064;-85
2023/04/01 10:37:09;;;;;;;22.60;12.18;;;;;;;-144.87;100.00;61487.56;5012469;28;20056;-85
2023/04/01 10:40:19;;;;;;;20.83;10.68;;;;;;;-144.87;100.00;61487.56;4998562;28;20041;-87
2023/04/01 10:43:43;;;;;;;13.00;7.75;;;;;;;-144.87;100.00;61487.56;5021546;28;20045;-86
2023/04/01 10:46:39;;;;;;;14.00;8.38;;;;;;;-144.87;100.00;61487.56;5034175;28;20124;-87
2023/04/01 10:53:01;;;;;;;19.15;10.15;;;;;;;-144.87;100.00;61487.56;5017810;28;20037;-86
2023/04/01 10:56:25;;;;;;;15.18;9.57;;;;;;;-144.87;100.00;61487.56;5012908;28;20072;-86
2023/04/01 10:59:32;;;;;;;19.55;9.90;;;;;;;-144.87;100.00;61487.56;5014624;28;20096;-87
2023/04/01 11:02:26;;;;;;;17.23;9.35;;;;;;;-144.87;100.00;61487.56;5015798;28;20038;-84
2023/04/01 11:05:27;;;;;;;12.55;8.27;;;;;;;-144.87;100.00;61487.56;5002422;28;20124;-84
2023/04/01 11:08:18;;;;;;;13.50;8.98;;;;;;;-144.87;100.00;61487.56;5005710;28;20068;-85
2023/04/01 11:11:02;;;;;;;13.93;9.18;;;;;;;-144.87;100.00;61487.56;4994754;28;20033;-87
2023/04/01 11:14:04;;;;;;;14.20;8.20;;;;;;;-144.87;100.00;61487.56;4995334;28;20053;-90
2023/04/01 11:17:08;;;;;;;14.40;9.20;;;;;;;-144.87;100.00;61487.56;5007259;28;20052;-86
2023/04/01 11:19:45;;;;;;;15.55;9.77;;;;;;;-144.87;100.00;61487.56;5031813;28;20041;-86
2023/04/01 11:22:26;;;;;;;15.80;9.60;;;;;;;-144.87;100.00;61487.56;5027360;28;20720;-87
2023/04/01 11:25:08;;;;;;;13.63;7.30;;;;;;;-144.87;100.00;61487.56;5001143;28;20029;-87
2023/04/01 11:28:07;;;;;;;11.55;7.88;;;;;;;-144.87;100.00;61487.56;4997181;28;20046;-85
2023/04/01 11:31:06;;;;;;;10.15;6.28;;;;;;;-144.87;100.00;61487.56;5020811;28;20083;-89
2023/04/01 11:33:45;;;;;;;10.15;6.32;;;;;;;-144.87;100.00;61487.56;5012328;28;20124;-87
2023/04/01 11:36:25;;;;;;;9.93;6.97;;;;;;;-144.87;100.00;61487.56;5021437;28;20119;-89
2023/04/01 11:39:23;;;;;;;8.63;7.20;;;;;;;-144.87;100.00;61487.56;4997579;28;20026;-86
2023/04/01 11:42:02;;;;;;;11.23;6.80;;;;;;;-144.87;100.00;61487.56;5018693;28;20139;-87
2023/04/01 11:45:13;;;;;;;9.68;7.03;;;;;;;-144.87;100.00;61487.56;5015809;28;20526;-87
2023/04/01 11:48:09;;;;;;;11.23;8.05;;;;;;;-144.87;100.00;61487.56;4995662;28;20038;-88
2023/04/01 11:50:47;;;;;;;11.65;7.95;;;;;;;-144.87;100.00;61487.56;4988241;28;20101;-86
2023/04/01 11:53:32;;;;;;;16.83;9.32;;;;;;;-144.87;100.00;61487.56;5026058;28;20040;-88
2023/04/01 11:56:10;;;;;;;16.73;11.13;;;;;;;-144.87;100.00;61487.56;5049104;28;20117;-88